createdAt,value
2022-12-08T00:00:01.251Z,2.30
2022-12-08T00:05:01.098Z,2.60
2022-12-08T00:10:00.861Z,3.00
2022-12-08T00:15:00.997Z,3.10
2022-12-08T00:20:00.703Z,2.70
2022-12-08T00:25:00.919Z,3.20
2022-12-08T00:30:00.709Z,4.50
2022-12-08T00:35:00.890Z,5.40
2022-12-08T00:40:00.718Z,5.80
2022-12-08T00:45:00.679Z,6.60
2022-12-08T00:50:00.934Z,7.40
2022-12-08T00:55:01.135Z,6.00
2022-12-08T01:00:03.054Z,6.80
2022-12-08T01:05:00.713Z,7.80
2022-12-08T01:10:00.725Z,6.70
2022-12-08T01:15:02.489Z,6.80
2022-12-08T01:20:00.811Z,5.70
2022-12-08T01:25:01.269Z,6.30
2022-12-08T01:30:00.802Z,7.70
2022-12-08T01:35:00.653Z,7.10
2022-12-08T01:40:01.208Z,7.00
2022-12-08T01:45:04.004Z,7.40
2022-12-08T01:50:01.723Z,6.30
2022-12-08T01:55:06.256Z,5.40
2022-12-08T02:00:09.056Z,5.60
2022-12-08T02:05:02.131Z,5.20
2022-12-08T02:10:02.008Z,4.30
2022-12-08T02:15:04.995Z,4.60
2022-12-08T02:20:13.925Z,3.50
2022-12-08T02:25:10.581Z,3.20
2022-12-08T02:30:10.399Z,2.70
2022-12-08T02:35:06.999Z,3.00
2022-12-08T02:40:15.377Z,2.70
2022-12-08T02:45:11.422Z,2.90
2022-12-08T02:50:00.926Z,2.90
2022-12-08T02:55:05.313Z,2.30
2022-12-08T03:00:12.819Z,1.70
2022-12-08T03:05:11.323Z,2.10
2022-12-08T03:10:14.738Z,1.70
2022-12-08T03:15:09.844Z,1.40
2022-12-08T03:20:07.524Z,1.30
2022-12-08T03:25:01.006Z,1.20
2022-12-08T03:30:01.341Z,1.10
2022-12-08T03:35:04.062Z,1.40
2022-12-08T03:40:03.044Z,1.30
2022-12-08T03:45:00.759Z,1.40
2022-12-08T03:50:00.797Z,1.40
2022-12-08T03:55:00.649Z,1.60
2022-12-08T04:00:05.324Z,1.90
2022-12-08T04:05:00.649Z,1.40
2022-12-08T04:10:00.643Z,1.40
2022-12-08T04:15:00.716Z,1.30
2022-12-08T04:20:00.684Z,1.20
2022-12-08T04:25:00.868Z,0.90
2022-12-08T04:30:01.065Z,0.90
2022-12-08T04:35:00.725Z,0.60
2022-12-08T04:45:00.777Z,0.10
2022-12-08T04:50:00.804Z,0.30
2022-12-08T04:55:00.855Z,0.50
2022-12-08T05:00:02.458Z,0.50
2022-12-08T05:05:00.859Z,0.30
2022-12-08T05:10:00.808Z,0.30
2022-12-08T05:15:00.729Z,0.50
2022-12-08T05:20:01.217Z,0.40
2022-12-08T05:25:00.689Z,0.60
2022-12-08T05:30:01.019Z,0.50
2022-12-08T05:35:00.857Z,0.40
2022-12-08T05:40:00.800Z,0.50
2022-12-08T05:45:00.650Z,0.40
2022-12-08T05:50:00.719Z,0.50
2022-12-08T05:55:00.718Z,0.50
2022-12-08T06:00:03.579Z,0.40
2022-12-08T06:05:00.709Z,0.40
2022-12-08T06:10:00.649Z,0.60
2022-12-08T06:15:00.676Z,0.30
2022-12-08T06:20:00.873Z,0.40
2022-12-08T06:25:00.950Z,0.40
2022-12-08T06:30:00.859Z,0.70
2022-12-08T06:35:00.739Z,0.50
2022-12-08T06:40:00.660Z,0.40
2022-12-08T06:45:00.932Z,0.60
2022-12-08T06:50:00.873Z,0.60
2022-12-08T06:55:00.910Z,1.00
2022-12-08T07:00:01.627Z,0.80
2022-12-08T07:05:00.707Z,0.90
2022-12-08T07:10:00.662Z,1.10
2022-12-08T07:15:00.764Z,1.20
2022-12-08T07:20:00.672Z,1.30
2022-12-08T07:25:00.748Z,0.70
2022-12-08T07:30:00.656Z,0.60
2022-12-08T07:35:00.782Z,0.50
2022-12-08T07:40:01.248Z,0.60
2022-12-08T07:45:00.697Z,0.50
2022-12-08T07:50:00.717Z,0.80
2022-12-08T07:55:00.849Z,0.50
2022-12-08T08:00:02.910Z,0.40
2022-12-08T08:05:00.886Z,0.40
2022-12-08T08:10:00.860Z,0.50
2022-12-08T08:15:00.969Z,0.70
2022-12-08T08:20:01.697Z,0.50
2022-12-08T08:25:00.641Z,0.40
2022-12-08T08:30:00.671Z,0.70
2022-12-08T08:35:01.124Z,0.50
2022-12-08T08:40:00.887Z,0.50
2022-12-08T08:45:00.738Z,0.20
2022-12-08T08:50:00.721Z,0.30
2022-12-08T08:55:00.869Z,0.30
2022-12-08T09:00:03.687Z,0.40
2022-12-08T09:05:00.819Z,0.50
2022-12-08T09:10:02.107Z,0.40
2022-12-08T09:15:00.643Z,0.40
2022-12-08T09:20:00.773Z,0.50
2022-12-08T09:25:00.658Z,0.90
2022-12-08T09:30:00.710Z,0.80
2022-12-08T09:35:00.669Z,0.80
2022-12-08T09:40:00.735Z,1.00
2022-12-08T09:45:08.751Z,0.90
2022-12-08T09:50:13.412Z,1.10
2022-12-08T09:55:08.488Z,1.20
2022-12-08T10:00:05.198Z,1.50
2022-12-08T10:05:00.782Z,1.50
2022-12-08T10:10:06.794Z,1.70
2022-12-08T10:15:13.872Z,1.90
2022-12-08T10:20:12.880Z,2.20
2022-12-08T10:25:14.250Z,1.70
2022-12-08T10:30:00.831Z,2.30
2022-12-08T10:35:05.008Z,2.00
2022-12-08T10:40:09.503Z,2.30
2022-12-08T10:45:08.214Z,1.90
2022-12-08T10:50:20.579Z,1.50
2022-12-08T10:55:00.745Z,1.30
2022-12-08T11:00:01.547Z,1.20
2022-12-08T11:05:00.652Z,0.90
2022-12-08T11:10:00.713Z,0.90
2022-12-08T11:15:02.184Z,0.70
2022-12-08T11:20:13.060Z,0.60
2022-12-08T11:25:07.731Z,0.70
2022-12-08T11:30:02.338Z,0.60
2022-12-08T11:35:03.692Z,0.40
2022-12-08T11:40:06.086Z,0.90
2022-12-08T11:45:06.642Z,0.20
2022-12-08T11:50:19.627Z,0.20
2022-12-08T11:55:11.620Z,0.30
2022-12-08T12:00:03.505Z,0.30
2022-12-08T12:05:03.977Z,0.30
2022-12-08T12:10:11.676Z,0.30
2022-12-08T12:15:20.592Z,0.20
2022-12-08T12:20:08.483Z,0.30
2022-12-08T12:25:01.521Z,0.50
2022-12-08T12:30:05.423Z,0.70
2022-12-08T12:35:00.763Z,1.20
2022-12-08T12:40:10.960Z,1.20
2022-12-08T12:45:13.853Z,1.20
2022-12-08T12:50:05.803Z,1.00
2022-12-08T12:55:00.672Z,1.10
2022-12-08T13:00:01.414Z,0.90
2022-12-08T13:05:07.971Z,1.10
2022-12-08T13:10:10.359Z,0.90
2022-12-08T13:15:04.916Z,0.80
2022-12-08T13:20:05.250Z,0.90
2022-12-08T13:25:20.555Z,0.70
2022-12-08T13:30:20.559Z,2.50
2022-12-08T13:35:03.026Z,1.40
2022-12-08T13:40:07.471Z,0.80
2022-12-08T13:45:33.571Z,0.80
2022-12-08T14:00:05.819Z,1.00
2022-12-08T14:05:18.622Z,1.40
2022-12-08T14:10:02.509Z,1.50
2022-12-08T14:15:14.961Z,1.70
2022-12-08T14:20:14.422Z,1.50
2022-12-08T14:25:01.958Z,1.50
2022-12-08T14:30:04.555Z,1.40
2022-12-08T14:35:08.430Z,1.40
2022-12-08T14:40:09.670Z,1.80
2022-12-08T14:45:05.562Z,1.60
2022-12-08T14:50:03.458Z,1.80
2022-12-08T14:55:00.796Z,1.40
2022-12-08T15:00:07.316Z,1.70
2022-12-08T15:05:08.772Z,1.80
2022-12-08T15:10:20.562Z,2.00
2022-12-08T15:15:15.655Z,2.00
2022-12-08T15:20:02.061Z,2.00
2022-12-08T15:25:00.676Z,3.10
2022-12-08T15:30:00.730Z,3.50
2022-12-08T15:35:00.625Z,4.80
2022-12-08T15:40:00.701Z,6.00
2022-12-08T15:45:00.720Z,6.60
2022-12-08T15:50:00.708Z,5.70
2022-12-08T15:55:00.666Z,5.60
2022-12-08T16:00:03.956Z,5.10
2022-12-08T16:05:40.230Z,5.50
2022-12-08T16:10:00.859Z,5.70
2022-12-08T16:15:48.640Z,5.30
2022-12-08T16:20:01.655Z,4.90
2022-12-08T16:25:14.728Z,5.10
2022-12-08T16:30:00.774Z,4.60
2022-12-08T16:35:00.698Z,4.70
2022-12-08T16:40:01.175Z,5.10
2022-12-08T16:45:04.718Z,4.60
2022-12-08T16:50:05.248Z,4.80
2022-12-08T16:55:00.683Z,4.20
2022-12-08T17:00:01.595Z,5.10
2022-12-08T17:05:00.754Z,4.90
2022-12-08T17:10:04.786Z,4.80
2022-12-08T17:15:03.864Z,6.10
2022-12-08T17:20:01.572Z,5.30
2022-12-08T17:25:01.706Z,6.10
2022-12-08T17:30:00.695Z,6.10
2022-12-08T17:35:00.663Z,4.70
2022-12-08T17:40:00.732Z,4.20
2022-12-08T17:45:00.722Z,4.90
2022-12-08T17:50:00.847Z,4.50
2022-12-08T17:55:00.673Z,5.00
2022-12-08T18:00:03.591Z,5.40
2022-12-08T18:05:00.646Z,4.80
2022-12-08T18:10:00.660Z,5.30
2022-12-08T18:15:00.982Z,6.80
2022-12-08T18:20:00.903Z,5.50
2022-12-08T18:25:00.790Z,5.20
2022-12-08T18:30:01.219Z,5.10
2022-12-08T18:35:00.676Z,5.90
2022-12-08T18:40:00.723Z,6.80
2022-12-08T18:45:00.728Z,7.30
2022-12-08T18:50:00.784Z,6.00
2022-12-08T18:55:07.442Z,6.50
2022-12-08T19:00:02.707Z,7.30
2022-12-08T19:05:00.656Z,7.00
2022-12-08T19:10:00.676Z,7.30
2022-12-08T19:15:00.779Z,7.80
2022-12-08T19:20:00.735Z,7.80
2022-12-08T19:25:00.660Z,7.70
2022-12-08T19:30:00.698Z,9.30
2022-12-08T19:35:00.666Z,7.80
2022-12-08T19:40:00.736Z,7.80
2022-12-08T19:45:05.933Z,7.60
2022-12-08T19:50:00.660Z,9.90
2022-12-08T19:55:00.681Z,10.50
2022-12-08T20:00:01.404Z,11.00
2022-12-08T20:05:02.169Z,10.50
2022-12-08T20:10:04.444Z,10.80
2022-12-08T20:15:00.682Z,10.60
2022-12-08T20:20:06.627Z,10.50
2022-12-08T20:25:01.874Z,11.20
2022-12-08T20:30:00.674Z,11.10
2022-12-08T20:35:00.753Z,9.50
2022-12-08T20:40:00.703Z,10.00
2022-12-08T20:45:00.699Z,10.70
2022-12-08T20:50:02.778Z,9.90
2022-12-08T20:55:00.673Z,10.40
2022-12-08T21:00:01.638Z,9.60
2022-12-08T21:05:00.846Z,10.40
2022-12-08T21:10:01.095Z,11.30
2022-12-08T21:15:01.023Z,9.90
2022-12-08T21:20:00.841Z,10.60
2022-12-08T21:25:00.840Z,11.50
2022-12-08T21:30:00.780Z,10.70
2022-12-08T21:35:00.701Z,10.80
2022-12-08T21:40:00.790Z,11.20
2022-12-08T21:45:00.922Z,11.90
2022-12-08T21:50:00.881Z,10.10
2022-12-08T21:55:00.759Z,10.60
2022-12-08T22:00:02.678Z,12.40
2022-12-08T22:05:00.936Z,12.60
2022-12-08T22:10:00.767Z,12.50
2022-12-08T22:15:01.393Z,13.70
2022-12-08T22:20:00.750Z,12.40
2022-12-08T22:25:01.944Z,12.20
2022-12-08T22:30:02.774Z,12.50
2022-12-08T22:35:00.680Z,12.90
2022-12-08T22:40:00.712Z,12.50
2022-12-08T22:45:00.692Z,12.80
2022-12-08T22:50:01.076Z,13.40
2022-12-08T22:55:00.735Z,13.10
2022-12-08T23:00:03.678Z,15.40
2022-12-08T23:05:00.875Z,14.10
2022-12-08T23:10:01.237Z,13.20
2022-12-08T23:15:00.866Z,14.30
2022-12-08T23:20:00.874Z,16.30
2022-12-08T23:25:00.879Z,14.30
2022-12-08T23:30:00.859Z,15.90
2022-12-08T23:35:00.823Z,16.40
2022-12-08T23:40:02.048Z,16.90
2022-12-08T23:45:00.872Z,15.20
2022-12-08T23:50:00.761Z,14.80
2022-12-08T23:55:00.931Z,15.60
